createdAt,value
2017-09-09T00:01:01.640Z,98.47
2017-09-09T00:03:31.377Z,98.47
2017-09-09T00:06:01.123Z,98.44
2017-09-09T00:08:30.876Z,98.65
2017-09-09T00:11:00.624Z,98.91
2017-09-09T00:13:30.366Z,99.12
2017-09-09T00:16:00.095Z,99.16
2017-09-09T00:18:29.874Z,98.93
2017-09-09T00:20:59.586Z,98.71
2017-09-09T00:23:29.333Z,98.57
2017-09-09T00:25:59.088Z,98.49
2017-09-09T00:28:29.075Z,98.48
2017-09-09T00:30:58.926Z,98.43
2017-09-09T00:33:28.739Z,98.53
2017-09-09T00:35:58.542Z,98.81
2017-09-09T00:38:27.981Z,98.88
2017-09-09T00:40:57.784Z,98.95
2017-09-09T00:43:27.512Z,99.14
2017-09-09T00:45:57.239Z,99.22
2017-09-09T00:48:27.003Z,99.29
2017-09-09T00:50:56.710Z,99.41
2017-09-09T00:53:26.106Z,99.48
2017-09-09T00:55:55.827Z,99.60
2017-09-09T00:58:25.554Z,99.73
2017-09-09T01:00:55.288Z,99.65
2017-09-09T01:03:24.813Z,99.65
2017-09-09T01:05:54.566Z,99.57
2017-09-09T01:08:24.287Z,99.52
2017-09-09T01:10:54.019Z,99.51
2017-09-09T01:13:23.754Z,99.56
2017-09-09T01:15:53.320Z,99.57
2017-09-09T01:18:23.056Z,99.70
2017-09-09T01:20:52.436Z,99.85
2017-09-09T01:23:21.636Z,99.96
2017-09-09T01:25:51.024Z,100.00
2017-09-09T01:28:20.767Z,100.00
2017-09-09T01:30:50.760Z,100.00
2017-09-09T01:33:20.325Z,100.00
2017-09-09T01:35:50.083Z,100.00
2017-09-09T01:38:19.801Z,100.00
2017-09-09T01:40:49.553Z,100.00
2017-09-09T01:43:19.109Z,100.00
2017-09-09T01:45:48.836Z,100.00
2017-09-09T01:48:18.577Z,100.00
2017-09-09T01:50:48.312Z,100.00
2017-09-09T01:53:17.860Z,100.00
2017-09-09T01:55:47.599Z,100.00
2017-09-09T01:58:17.330Z,100.00
2017-09-09T02:00:47.068Z,100.00
2017-09-09T02:03:16.800Z,100.00
2017-09-09T02:05:46.540Z,100.00
2017-09-09T02:08:16.264Z,100.00
2017-09-09T02:10:45.837Z,99.99
2017-09-09T02:13:15.577Z,100.00
2017-09-09T02:15:45.293Z,100.00
2017-09-09T02:18:14.686Z,100.00
2017-09-09T02:20:44.417Z,100.00
2017-09-09T02:23:14.158Z,100.00
2017-09-09T02:25:43.886Z,100.00
2017-09-09T02:28:13.656Z,100.00
2017-09-09T02:30:43.397Z,100.00
2017-09-09T02:33:13.139Z,100.00
2017-09-09T02:35:42.862Z,100.00
2017-09-09T02:38:13.052Z,100.00
2017-09-09T02:40:42.788Z,100.00
2017-09-09T02:43:12.534Z,100.00
2017-09-09T02:45:42.264Z,100.00
2017-09-09T02:48:12.013Z,100.00
2017-09-09T02:50:41.847Z,100.00
2017-09-09T02:53:11.594Z,100.00
2017-09-09T02:55:41.353Z,100.00
2017-09-09T02:58:11.096Z,100.00
2017-09-09T03:00:40.892Z,100.00
2017-09-09T03:03:10.601Z,100.00
2017-09-09T03:05:40.333Z,100.00
2017-09-09T03:08:10.104Z,100.00
2017-09-09T03:10:39.808Z,100.00
2017-09-09T03:13:09.548Z,100.00
2017-09-09T03:15:39.273Z,100.00
2017-09-09T03:18:09.497Z,100.00
2017-09-09T03:20:39.237Z,100.00
2017-09-09T03:23:09.028Z,100.00
2017-09-09T03:25:38.756Z,100.00
2017-09-09T03:28:08.489Z,100.00
2017-09-09T03:30:38.221Z,100.00
2017-09-09T03:33:07.954Z,100.00
2017-09-09T03:35:37.500Z,100.00
2017-09-09T03:38:07.226Z,100.00
2017-09-09T03:40:36.956Z,100.00
2017-09-09T03:43:06.685Z,100.00
2017-09-09T03:45:36.432Z,100.00
2017-09-09T03:48:06.232Z,100.00
2017-09-09T03:50:35.958Z,100.00
2017-09-09T03:53:05.686Z,100.00
2017-09-09T03:55:35.408Z,100.00
2017-09-09T03:58:05.149Z,100.00
2017-09-09T04:00:34.903Z,100.00
2017-09-09T04:03:04.639Z,100.00
2017-09-09T04:05:34.371Z,100.00
2017-09-09T04:08:04.137Z,100.00
2017-09-09T04:10:33.896Z,100.00
2017-09-09T04:13:03.627Z,100.00
2017-09-09T04:15:33.371Z,100.00
2017-09-09T04:18:03.124Z,100.00
2017-09-09T04:20:32.997Z,100.00
2017-09-09T04:23:03.373Z,100.00
2017-09-09T04:25:33.113Z,100.00
2017-09-09T04:28:02.944Z,100.00
2017-09-09T04:30:32.664Z,100.00
2017-09-09T04:33:02.388Z,100.00
2017-09-09T04:35:32.160Z,100.00
2017-09-09T04:38:01.886Z,100.00
2017-09-09T04:40:31.600Z,100.00
2017-09-09T04:43:01.341Z,100.00
2017-09-09T04:45:31.085Z,100.00
2017-09-09T04:48:00.932Z,100.00
2017-09-09T04:50:30.663Z,100.00
2017-09-09T04:53:00.386Z,100.00
2017-09-09T04:55:30.112Z,100.00
2017-09-09T04:57:59.838Z,100.00
2017-09-09T05:00:29.575Z,100.00
2017-09-09T05:02:59.304Z,100.00
2017-09-09T05:05:29.049Z,100.00
2017-09-09T05:07:58.803Z,100.00
2017-09-09T05:10:29.433Z,100.00
2017-09-09T05:12:59.171Z,100.00
2017-09-09T05:15:28.909Z,100.00
2017-09-09T05:17:58.640Z,100.00
2017-09-09T05:20:28.357Z,100.00
2017-09-09T05:22:57.941Z,100.00
2017-09-09T05:25:27.665Z,100.00
2017-09-09T05:27:57.397Z,100.00
2017-09-09T05:30:27.168Z,100.00
2017-09-09T05:32:56.935Z,100.00
2017-09-09T05:35:26.668Z,100.00
2017-09-09T05:37:56.313Z,100.00
2017-09-09T05:40:26.040Z,100.00
2017-09-09T05:42:55.773Z,100.00
2017-09-09T05:45:25.512Z,100.00
2017-09-09T05:47:55.244Z,100.00
2017-09-09T05:50:24.780Z,99.89
2017-09-09T05:52:54.356Z,99.37
2017-09-09T05:55:24.106Z,98.59
2017-09-09T05:57:53.932Z,97.61
2017-09-09T06:00:23.666Z,96.84
2017-09-09T06:02:53.267Z,96.89
2017-09-09T06:05:23.045Z,96.85
2017-09-09T06:07:52.769Z,96.78
2017-09-09T06:10:22.548Z,96.29
2017-09-09T06:12:52.261Z,96.39
2017-09-09T06:15:22.121Z,96.17
2017-09-09T06:17:51.872Z,95.89
2017-09-09T06:20:21.640Z,95.79
2017-09-09T06:22:51.374Z,95.36
2017-09-09T06:25:21.188Z,94.71
2017-09-09T06:27:50.961Z,93.54
2017-09-09T06:30:20.792Z,92.53
2017-09-09T06:32:51.504Z,91.74
2017-09-09T06:35:21.367Z,91.15
2017-09-09T06:37:51.124Z,89.98
2017-09-09T06:40:20.918Z,89.76
2017-09-09T06:42:50.724Z,89.92
2017-09-09T06:45:20.510Z,89.72
2017-09-09T06:47:50.274Z,87.98
2017-09-09T06:50:20.058Z,86.90
2017-09-09T06:52:49.528Z,86.50
2017-09-09T06:55:19.026Z,85.94
2017-09-09T06:57:48.811Z,85.15
2017-09-09T07:00:19.512Z,84.45
2017-09-09T07:02:48.859Z,83.69
2017-09-09T07:05:18.313Z,83.33
2017-09-09T07:07:47.816Z,81.95
2017-09-09T07:10:17.306Z,80.49
2017-09-09T07:12:46.750Z,80.00
2017-09-09T07:15:16.231Z,79.36
2017-09-09T07:17:45.805Z,80.90
2017-09-09T07:20:15.325Z,81.73
2017-09-09T07:22:44.761Z,81.40
2017-09-09T07:25:14.246Z,80.74
2017-09-09T07:27:43.710Z,80.07
2017-09-09T07:30:13.192Z,79.16
2017-09-09T07:32:42.646Z,79.15
2017-09-09T07:35:12.134Z,78.12
2017-09-09T07:37:41.604Z,76.49
2017-09-09T07:40:11.078Z,74.89
2017-09-09T07:42:40.522Z,74.81
2017-09-09T07:45:10.002Z,75.38
2017-09-09T07:47:39.444Z,75.36
2017-09-09T07:50:09.004Z,75.17
2017-09-09T07:52:38.461Z,74.66
2017-09-09T07:55:07.968Z,74.79
2017-09-09T07:57:37.401Z,74.37
2017-09-09T08:00:07.047Z,74.20
2017-09-09T08:02:36.498Z,73.42
2017-09-09T08:05:05.973Z,72.06
2017-09-09T08:07:35.509Z,70.63
2017-09-09T08:10:05.019Z,68.79
2017-09-09T08:12:34.452Z,68.33
2017-09-09T08:15:03.982Z,66.17
2017-09-09T08:17:33.442Z,66.41
2017-09-09T08:20:03.018Z,64.89
2017-09-09T08:22:32.542Z,65.09
2017-09-09T08:25:02.158Z,66.37
2017-09-09T08:27:31.615Z,63.99
2017-09-09T08:30:01.081Z,63.50
2017-09-09T08:32:30.537Z,62.21
2017-09-09T08:34:59.987Z,60.93
2017-09-09T08:37:29.428Z,60.87
2017-09-09T08:39:58.877Z,62.32
2017-09-09T08:42:28.329Z,62.01
2017-09-09T08:44:57.781Z,60.23
2017-09-09T08:47:27.232Z,60.03
2017-09-09T08:49:56.669Z,60.69
2017-09-09T08:52:26.124Z,60.00
2017-09-09T08:54:55.592Z,58.31
2017-09-09T08:57:25.070Z,58.34
2017-09-09T08:59:54.517Z,59.21
2017-09-09T09:02:23.964Z,58.16
2017-09-09T09:04:53.249Z,57.40
2017-09-09T09:07:22.753Z,57.26
2017-09-09T09:09:52.329Z,56.48
2017-09-09T09:12:21.759Z,56.02
2017-09-09T09:14:51.031Z,55.30
2017-09-09T09:17:20.507Z,54.81
2017-09-09T09:19:49.942Z,55.55
2017-09-09T09:22:19.453Z,55.56
2017-09-09T09:24:48.932Z,55.00
2017-09-09T09:27:18.384Z,54.26
2017-09-09T09:29:47.862Z,54.30
2017-09-09T09:32:17.300Z,54.11
2017-09-09T09:34:46.737Z,56.29
2017-09-09T09:37:16.185Z,56.98
2017-09-09T09:39:45.687Z,56.27
2017-09-09T09:42:15.140Z,53.82
2017-09-09T09:44:44.589Z,54.94
2017-09-09T09:47:14.045Z,53.88
2017-09-09T09:49:43.497Z,53.31
2017-09-09T09:52:12.926Z,52.92
2017-09-09T09:54:42.430Z,53.58
2017-09-09T09:57:11.877Z,52.46
2017-09-09T09:59:41.544Z,51.71
2017-09-09T10:02:11.029Z,51.20
2017-09-09T10:04:40.460Z,51.29
2017-09-09T10:07:09.932Z,50.98
2017-09-09T10:09:39.392Z,50.77
2017-09-09T10:12:08.910Z,51.85
2017-09-09T10:14:38.368Z,51.50
2017-09-09T10:17:07.850Z,49.75
2017-09-09T10:19:37.285Z,47.31
2017-09-09T10:22:06.553Z,47.69
2017-09-09T10:24:40.293Z,48.23
2017-09-09T10:27:09.679Z,47.51
2017-09-09T10:29:39.053Z,46.35
2017-09-09T10:32:08.510Z,46.93
2017-09-09T10:34:37.953Z,47.25
2017-09-09T10:37:07.421Z,46.11
2017-09-09T10:39:36.865Z,46.09
2017-09-09T10:42:06.316Z,46.06
2017-09-09T10:44:35.769Z,46.99
2017-09-09T10:47:05.400Z,46.56
2017-09-09T10:49:34.817Z,45.66
2017-09-09T10:52:04.278Z,45.90
2017-09-09T10:54:33.559Z,46.23
2017-09-09T10:57:03.037Z,45.64
2017-09-09T10:59:32.494Z,46.55
2017-09-09T11:02:01.951Z,44.68
2017-09-09T11:04:31.383Z,44.27
2017-09-09T11:07:00.831Z,45.69
2017-09-09T11:09:30.273Z,44.41
2017-09-09T11:11:59.718Z,44.61
2017-09-09T11:14:29.191Z,44.10
2017-09-09T11:16:58.639Z,44.79
2017-09-09T11:19:28.277Z,43.63
2017-09-09T11:21:57.715Z,44.15
2017-09-09T11:24:27.230Z,44.51
2017-09-09T11:26:56.749Z,44.36
2017-09-09T11:29:26.194Z,43.88
2017-09-09T11:31:55.829Z,43.10
2017-09-09T11:34:25.294Z,44.37
2017-09-09T11:36:54.741Z,44.11
2017-09-09T11:39:24.184Z,41.42
2017-09-09T11:41:53.630Z,41.43
2017-09-09T11:44:23.052Z,43.73
2017-09-09T11:46:52.542Z,43.54
2017-09-09T11:49:21.980Z,42.39
2017-09-09T11:51:51.425Z,42.14
2017-09-09T11:54:20.880Z,40.87
2017-09-09T11:56:50.342Z,43.20
2017-09-09T11:59:19.772Z,42.96
2017-09-09T12:01:49.228Z,43.18
2017-09-09T12:04:18.693Z,41.38
2017-09-09T12:06:48.121Z,43.00
2017-09-09T12:09:17.580Z,41.27
2017-09-09T12:11:47.016Z,42.18
2017-09-09T12:14:16.494Z,40.23
2017-09-09T12:16:45.969Z,39.33
2017-09-09T12:19:15.412Z,36.66
2017-09-09T12:21:44.867Z,36.30
2017-09-09T12:24:14.328Z,35.16
2017-09-09T12:26:43.782Z,35.88
2017-09-09T12:29:13.220Z,34.24
2017-09-09T12:31:42.684Z,32.98
2017-09-09T12:34:12.116Z,31.19
2017-09-09T12:36:41.563Z,30.39
2017-09-09T12:39:11.027Z,29.43
2017-09-09T12:41:40.506Z,29.06
2017-09-09T12:44:09.948Z,28.35
2017-09-09T12:46:39.391Z,28.18
2017-09-09T12:49:08.842Z,27.22
2017-09-09T12:51:38.124Z,26.95
2017-09-09T12:54:08.550Z,27.09
2017-09-09T12:56:37.992Z,25.97
2017-09-09T12:59:07.438Z,26.28
2017-09-09T13:01:36.894Z,25.46
2017-09-09T13:04:06.353Z,24.33
2017-09-09T13:06:35.801Z,24.61
2017-09-09T13:09:04.644Z,24.18
2017-09-09T13:11:34.084Z,24.53
2017-09-09T13:14:03.553Z,23.84
2017-09-09T13:16:33.005Z,23.85
2017-09-09T13:19:02.456Z,25.06
2017-09-09T13:21:31.914Z,23.89
2017-09-09T13:24:01.357Z,22.92
2017-09-09T13:26:30.821Z,22.80
2017-09-09T13:29:00.303Z,24.12
2017-09-09T13:31:29.904Z,24.60
2017-09-09T13:33:59.361Z,25.27
2017-09-09T13:36:28.808Z,25.88
2017-09-09T13:38:58.286Z,25.94
2017-09-09T13:41:27.728Z,28.67
2017-09-09T13:43:57.193Z,27.45
2017-09-09T13:46:26.653Z,28.33
2017-09-09T13:48:56.092Z,30.48
2017-09-09T13:51:25.536Z,31.41
2017-09-09T13:53:54.794Z,31.21
2017-09-09T13:56:24.281Z,32.26
2017-09-09T13:58:53.725Z,32.17
2017-09-09T14:01:23.173Z,34.24
2017-09-09T14:03:52.441Z,36.90
2017-09-09T14:06:21.876Z,38.03
2017-09-09T14:08:51.337Z,36.83
2017-09-09T14:11:20.961Z,38.24
2017-09-09T14:13:50.385Z,36.62
2017-09-09T14:16:19.676Z,33.18
2017-09-09T14:18:49.221Z,31.88
2017-09-09T14:21:18.681Z,32.48
2017-09-09T14:23:48.130Z,32.49
2017-09-09T14:26:17.609Z,32.90
2017-09-09T14:28:47.094Z,31.32
2017-09-09T14:31:16.345Z,31.92
2017-09-09T14:33:45.811Z,30.11
2017-09-09T14:36:15.336Z,29.22
2017-09-09T14:38:44.810Z,28.26
2017-09-09T14:41:14.233Z,27.14
2017-09-09T14:43:43.488Z,27.98
2017-09-09T14:46:12.944Z,27.68
2017-09-09T14:48:42.390Z,27.08
2017-09-09T14:51:11.840Z,27.80
2017-09-09T14:53:41.362Z,28.76
2017-09-09T14:56:11.012Z,29.47
2017-09-09T14:58:40.452Z,30.21
2017-09-09T15:01:09.890Z,29.65
2017-09-09T15:03:39.349Z,30.19
2017-09-09T15:06:08.793Z,29.58
2017-09-09T15:08:38.241Z,30.50
2017-09-09T15:11:07.760Z,31.68
2017-09-09T15:13:37.065Z,32.78
2017-09-09T15:16:06.517Z,34.55
2017-09-09T15:18:35.961Z,33.87
2017-09-09T15:21:05.425Z,35.91
2017-09-09T15:23:34.876Z,37.01
2017-09-09T15:26:04.390Z,37.79
2017-09-09T15:28:33.829Z,38.24
2017-09-09T15:31:03.285Z,39.87
2017-09-09T15:33:32.810Z,39.72
2017-09-09T15:36:02.278Z,42.65
2017-09-09T15:38:31.774Z,43.67
2017-09-09T15:41:01.217Z,45.31
2017-09-09T15:43:30.661Z,45.24
2017-09-09T15:46:00.145Z,45.26
2017-09-09T15:48:29.433Z,45.81
2017-09-09T15:50:58.932Z,45.83
2017-09-09T15:53:28.390Z,46.29
2017-09-09T15:55:57.845Z,47.15
2017-09-09T15:58:27.301Z,47.31
2017-09-09T16:00:56.785Z,47.32
2017-09-09T16:03:26.252Z,47.68
2017-09-09T16:05:55.804Z,47.87
2017-09-09T16:08:25.271Z,47.75
2017-09-09T16:10:54.970Z,47.98
2017-09-09T16:13:24.424Z,49.19
2017-09-09T16:15:53.896Z,48.95
2017-09-09T16:18:23.489Z,50.22
2017-09-09T16:20:52.941Z,50.51
2017-09-09T16:23:22.436Z,50.16
2017-09-09T16:25:51.864Z,51.11
2017-09-09T16:28:21.319Z,51.59
2017-09-09T16:30:50.764Z,53.32
2017-09-09T16:33:20.257Z,53.86
2017-09-09T16:35:49.728Z,54.00
2017-09-09T16:38:19.421Z,53.96
2017-09-09T16:40:48.715Z,55.55
2017-09-09T16:43:17.965Z,56.11
2017-09-09T16:45:47.432Z,56.82
2017-09-09T16:48:16.874Z,56.40
2017-09-09T16:50:46.364Z,57.40
2017-09-09T16:53:15.818Z,56.83
2017-09-09T16:55:45.259Z,54.45
2017-09-09T16:58:14.769Z,51.64
2017-09-09T17:00:44.228Z,52.53
2017-09-09T17:03:13.677Z,52.08
2017-09-09T17:05:43.146Z,51.88
2017-09-09T17:08:12.639Z,52.86
2017-09-09T17:10:42.898Z,53.58
2017-09-09T17:13:13.953Z,56.92
2017-09-09T17:15:43.395Z,58.58
2017-09-09T17:18:12.847Z,59.42
2017-09-09T17:20:42.280Z,59.64
2017-09-09T17:23:11.729Z,58.96
2017-09-09T17:25:41.250Z,59.10
2017-09-09T17:28:10.683Z,59.41
2017-09-09T17:30:40.161Z,58.56
2017-09-09T17:33:09.608Z,57.08
2017-09-09T17:35:39.086Z,56.25
2017-09-09T17:38:08.595Z,55.48
2017-09-09T17:40:38.101Z,54.22
2017-09-09T17:43:07.941Z,53.33
2017-09-09T17:45:37.380Z,51.75
2017-09-09T17:48:06.824Z,51.56
2017-09-09T17:50:36.263Z,51.60
2017-09-09T17:53:05.717Z,51.06
2017-09-09T17:55:35.180Z,50.88
2017-09-09T17:58:04.646Z,51.36
2017-09-09T18:00:34.099Z,51.37
2017-09-09T18:03:03.521Z,52.03
2017-09-09T18:05:32.986Z,52.45
2017-09-09T18:08:02.421Z,53.06
2017-09-09T18:10:31.885Z,53.21
2017-09-09T18:13:01.335Z,53.52
2017-09-09T18:15:30.795Z,54.19
2017-09-09T18:18:00.092Z,54.02
2017-09-09T18:20:29.555Z,54.83
2017-09-09T18:22:58.886Z,55.22
2017-09-09T18:25:28.344Z,55.64
2017-09-09T18:27:57.834Z,55.62
2017-09-09T18:30:27.338Z,55.55
2017-09-09T18:32:56.823Z,55.77
2017-09-09T18:35:26.104Z,55.67
2017-09-09T18:37:55.595Z,56.06
2017-09-09T18:40:25.093Z,56.31
2017-09-09T18:42:54.562Z,57.07
2017-09-09T18:45:24.051Z,57.32
2017-09-09T18:47:53.556Z,56.81
2017-09-09T18:50:23.100Z,57.16
2017-09-09T18:52:52.549Z,57.78
2017-09-09T18:55:22.040Z,57.75
2017-09-09T18:57:51.506Z,58.04
2017-09-09T19:00:21.026Z,58.17
2017-09-09T19:02:54.866Z,57.44
2017-09-09T19:05:25.062Z,57.42
2017-09-09T19:07:54.663Z,57.61
2017-09-09T19:10:24.232Z,57.62
2017-09-09T19:12:53.742Z,58.59
2017-09-09T19:15:23.217Z,59.02
2017-09-09T19:17:52.657Z,59.17
2017-09-09T19:20:22.231Z,59.36
2017-09-09T19:22:51.670Z,59.79
2017-09-09T19:25:21.160Z,60.10
2017-09-09T19:27:50.774Z,60.69
2017-09-09T19:30:20.277Z,61.47
2017-09-09T19:32:49.744Z,61.91
2017-09-09T19:35:19.239Z,62.78
2017-09-09T19:37:48.737Z,63.39
2017-09-09T19:40:18.230Z,63.55
2017-09-09T19:42:47.488Z,63.70
2017-09-09T19:45:16.968Z,64.29
2017-09-09T19:47:46.484Z,63.90
2017-09-09T19:50:15.980Z,64.48
2017-09-09T19:52:45.517Z,64.33
2017-09-09T19:55:15.027Z,64.49
2017-09-09T19:57:44.477Z,64.50
2017-09-09T20:00:13.986Z,65.07
2017-09-09T20:02:43.529Z,65.60
2017-09-09T20:05:14.006Z,66.11
2017-09-09T20:07:43.449Z,66.04
2017-09-09T20:10:12.963Z,66.41
2017-09-09T20:12:42.413Z,65.85
2017-09-09T20:15:11.877Z,66.50
2017-09-09T20:17:41.319Z,66.50
2017-09-09T20:20:10.812Z,66.06
2017-09-09T20:22:40.253Z,66.23
2017-09-09T20:25:09.594Z,66.23
2017-09-09T20:27:38.845Z,66.99
2017-09-09T20:30:08.317Z,67.11
2017-09-09T20:32:37.755Z,67.33
2017-09-09T20:35:07.229Z,67.47
2017-09-09T20:37:36.666Z,66.74
2017-09-09T20:40:05.975Z,66.32
2017-09-09T20:42:35.445Z,66.06
2017-09-09T20:45:04.997Z,66.25
2017-09-09T20:47:34.422Z,66.66
2017-09-09T20:50:03.899Z,66.22
2017-09-09T20:52:33.141Z,66.54
2017-09-09T20:55:02.444Z,66.79
2017-09-09T20:57:31.713Z,67.19
2017-09-09T21:00:01.048Z,67.51
2017-09-09T21:02:30.492Z,67.55
2017-09-09T21:04:59.765Z,67.55
2017-09-09T21:07:29.261Z,67.53
2017-09-09T21:09:58.737Z,67.40
2017-09-09T21:12:28.224Z,67.37
2017-09-09T21:14:57.844Z,67.26
2017-09-09T21:17:27.284Z,67.17
2017-09-09T21:19:56.745Z,67.59
2017-09-09T21:22:26.186Z,67.91
2017-09-09T21:24:55.638Z,67.60
2017-09-09T21:27:25.088Z,67.91
2017-09-09T21:29:54.448Z,68.01
2017-09-09T21:32:23.869Z,66.84
2017-09-09T21:34:53.316Z,66.84
2017-09-09T21:37:22.765Z,66.50
2017-09-09T21:39:52.214Z,66.19
2017-09-09T21:42:21.661Z,66.26
2017-09-09T21:44:51.188Z,66.32
2017-09-09T21:47:20.692Z,65.40
2017-09-09T21:49:50.145Z,65.43
2017-09-09T21:52:19.593Z,65.32
2017-09-09T21:54:48.901Z,65.41
2017-09-09T21:57:18.386Z,65.60
2017-09-09T21:59:47.839Z,65.51
2017-09-09T22:02:17.282Z,66.18
2017-09-09T22:04:46.788Z,66.84
2017-09-09T22:07:16.228Z,66.72
2017-09-09T22:09:45.784Z,66.90
2017-09-09T22:12:15.273Z,67.34
2017-09-09T22:14:44.724Z,67.65
2017-09-09T22:17:13.989Z,67.76
2017-09-09T22:19:43.446Z,67.79
2017-09-09T22:22:12.886Z,68.49
2017-09-09T22:24:42.333Z,68.97
2017-09-09T22:27:13.372Z,68.94
2017-09-09T22:29:42.822Z,69.24
2017-09-09T22:32:13.219Z,69.42
2017-09-09T22:34:42.636Z,69.99
2017-09-09T22:37:12.080Z,70.09
2017-09-09T22:39:41.518Z,70.62
2017-09-09T22:42:10.960Z,70.60
2017-09-09T22:44:40.429Z,70.74
2017-09-09T22:47:09.882Z,70.75
2017-09-09T22:49:39.320Z,70.87
2017-09-09T22:52:08.789Z,70.92
2017-09-09T22:54:38.237Z,70.93
2017-09-09T22:57:07.707Z,70.96
2017-09-09T22:59:37.217Z,70.90
2017-09-09T23:02:06.678Z,70.94
2017-09-09T23:04:36.108Z,71.13
2017-09-09T23:07:05.639Z,71.34
2017-09-09T23:09:35.227Z,70.98
2017-09-09T23:12:04.657Z,70.94
2017-09-09T23:14:34.117Z,71.23
2017-09-09T23:17:03.581Z,71.14
2017-09-09T23:19:33.068Z,71.22
2017-09-09T23:22:02.515Z,70.94
2017-09-09T23:24:31.790Z,71.40
2017-09-09T23:27:01.243Z,71.18
2017-09-09T23:29:30.690Z,71.75
2017-09-09T23:32:00.140Z,71.91
2017-09-09T23:34:29.569Z,71.91
2017-09-09T23:36:58.850Z,72.11
2017-09-09T23:39:28.308Z,71.82
2017-09-09T23:41:57.782Z,72.09
2017-09-09T23:44:27.251Z,72.12
2017-09-09T23:46:56.689Z,72.37
2017-09-09T23:49:25.954Z,72.39
2017-09-09T23:51:55.428Z,73.23
2017-09-09T23:54:24.865Z,73.04
2017-09-09T23:56:54.318Z,73.18
2017-09-09T23:59:23.776Z,73.40
